Time;durP1;ratioP1;P1;durP2;ratioP2;P2;SDS_P1;SDS_P2;PMS_P1;PMS_P2;Temp;Humidity;BMP_temperature;BMP_pressure;BME280_temperature;BME280_humidity;BME280_pressure;Samples;Min_cycle;Max_cycle;Signal;HPM_P1;HPM_P2
2021/01/04 00:02:57;;;;;;;40.28;23.42;;;22.70;35.70;;;;;;6102279;28;86188;-74
2021/01/04 00:05:57;;;;;;;40.40;22.55;;;22.70;35.60;;;;;;6099198;28;84747;-75
2021/01/04 00:09:00;;;;;;;45.00;24.48;;;22.70;35.90;;;;;;6095807;28;84309;-74
2021/01/04 00:12:00;;;;;;;46.92;25.98;;;22.70;35.80;;;;;;6094321;28;83459;-74
2021/01/04 00:15:01;;;;;;;46.97;25.98;;;22.70;35.10;;;;;;6099109;28;83796;-74
2021/01/04 00:18:02;;;;;;;41.08;24.40;;;22.70;35.20;;;;;;6096019;28;83112;-74
2021/01/04 00:21:02;;;;;;;45.40;25.38;;;22.70;35.30;;;;;;6093842;28;84345;-74
2021/01/04 00:24:03;;;;;;;36.63;22.23;;;22.70;35.30;;;;;;6100760;28;83418;-74
2021/01/04 00:27:03;;;;;;;45.25;25.63;;;22.70;35.30;;;;;;6101369;28;85820;-73
2021/01/04 00:30:04;;;;;;;42.47;23.45;;;22.70;35.30;;;;;;6098070;28;84041;-74
2021/01/04 00:33:04;;;;;;;45.28;25.20;;;22.60;35.30;;;;;;6093372;28;84226;-74
2021/01/04 00:36:05;;;;;;;46.17;24.85;;;22.70;35.00;;;;;;6102618;28;83007;-74
2021/01/04 00:39:05;;;;;;;46.20;26.45;;;22.60;35.20;;;;;;6098966;28;90987;-76
2021/01/04 00:42:06;;;;;;;47.17;25.63;;;22.60;35.30;;;;;;6084943;28;83231;-76
2021/01/04 00:45:06;;;;;;;51.85;27.55;;;22.70;35.20;;;;;;6086098;28;83413;-77
2021/01/04 00:48:07;;;;;;;48.00;26.85;;;22.60;35.10;;;;;;6094277;28;83612;-77
2021/01/04 00:51:07;;;;;;;45.03;26.15;;;22.60;34.80;;;;;;6087330;28;83960;-78
2021/01/04 00:54:08;;;;;;;42.78;24.95;;;22.60;35.00;;;;;;6100194;28;83173;-77
2021/01/04 00:57:09;;;;;;;48.40;27.90;;;22.60;35.30;;;;;;6093975;28;83568;-76
2021/01/04 01:00:10;;;;;;;51.15;28.38;;;22.60;35.30;;;;;;6101777;28;83282;-76
2021/01/04 01:03:10;;;;;;;53.08;27.25;;;22.60;35.20;;;;;;6097035;28;86707;-74
2021/01/04 01:06:11;;;;;;;48.20;27.67;;;22.60;35.50;;;;;;6093742;28;84032;-74
2021/01/04 01:09:11;;;;;;;47.83;25.95;;;22.50;35.50;;;;;;6093514;28;83374;-74
2021/01/04 01:12:12;;;;;;;48.90;28.33;;;22.50;35.40;;;;;;6092548;28;83162;-75
2021/01/04 01:15:12;;;;;;;50.55;27.95;;;22.60;35.60;;;;;;6095571;28;83560;-75
2021/01/04 01:18:13;;;;;;;49.38;28.52;;;22.50;35.30;;;;;;6098513;28;84672;-75
2021/01/04 01:21:14;;;;;;;55.58;29.67;;;22.50;35.30;;;;;;6098140;28;83283;-73
2021/01/04 01:24:14;;;;;;;53.15;30.05;;;22.50;35.30;;;;;;6085659;28;83442;-74
2021/01/04 01:27:15;;;;;;;56.45;31.23;;;22.50;35.10;;;;;;6092085;28;83435;-74
2021/01/04 01:30:15;;;;;;;53.20;31.50;;;22.50;34.80;;;;;;6117006;28;83443;-74
2021/01/04 01:33:16;;;;;;;57.08;32.15;;;22.50;34.70;;;;;;6100028;28;83289;-75
2021/01/04 01:36:16;;;;;;;56.65;33.03;;;22.50;34.80;;;;;;6099109;28;83773;-72
2021/01/04 01:39:17;;;;;;;58.85;32.83;;;22.50;34.80;;;;;;6112811;28;86179;-76
2021/01/04 01:42:17;;;;;;;54.58;31.67;;;22.40;34.70;;;;;;6088946;28;83573;-77
2021/01/04 01:45:18;;;;;;;57.38;32.63;;;22.50;35.10;;;;;;6099184;28;83463;-79
2021/01/04 01:48:18;;;;;;;52.38;29.02;;;22.50;34.70;;;;;;6082082;28;83804;-77
2021/01/04 01:51:19;;;;;;;50.33;29.05;;;22.50;35.60;;;;;;6089528;28;83192;-81
2021/01/04 01:54:19;;;;;;;61.10;29.50;;;22.40;35.70;;;;;;6099061;28;83735;-74
2021/01/04 01:57:20;;;;;;;55.00;30.40;;;22.50;36.00;;;;;;6095912;28;83090;-75
2021/01/04 02:00:20;;;;;;;54.03;29.40;;;22.40;35.60;;;;;;6090609;28;93985;-83
2021/01/04 02:03:21;;;;;;;53.67;29.63;;;22.50;35.60;;;;;;6096386;28;83403;-82
2021/01/04 02:06:21;;;;;;;53.83;29.75;;;22.50;35.60;;;;;;6084440;28;84535;-83
2021/01/04 02:09:22;;;;;;;49.58;28.23;;;22.50;35.70;;;;;;6103314;28;83459;-80
2021/01/04 02:12:22;;;;;;;49.85;28.77;;;22.50;35.90;;;;;;6104404;28;84012;-79
2021/01/04 02:15:23;;;;;;;47.47;26.23;;;22.40;35.80;;;;;;6106018;28;83225;-80
2021/01/04 02:18:23;;;;;;;49.88;28.00;;;22.50;35.90;;;;;;6102014;28;84115;-80
2021/01/04 02:21:24;;;;;;;52.15;28.35;;;22.40;36.00;;;;;;6108492;28;85770;-80
2021/01/04 02:24:24;;;;;;;48.97;28.17;;;22.50;36.20;;;;;;6092764;28;83469;-80
2021/01/04 02:27:25;;;;;;;50.58;27.35;;;22.40;35.90;;;;;;6085619;28;83745;-78
2021/01/04 02:30:25;;;;;;;52.67;29.95;;;22.50;36.00;;;;;;6104887;28;83499;-80
2021/01/04 02:33:26;;;;;;;48.97;28.02;;;22.40;35.80;;;;;;6103365;28;83331;-80
2021/01/04 02:36:26;;;;;;;47.80;28.13;;;22.40;35.90;;;;;;6103999;28;86142;-80
2021/01/04 02:39:27;;;;;;;46.88;26.23;;;22.40;35.80;;;;;;6094998;28;83527;-80
2021/01/04 02:42:27;;;;;;;50.63;28.30;;;22.40;35.80;;;;;;6099246;28;84518;-81
2021/01/04 02:45:28;;;;;;;50.00;30.20;;;22.40;35.80;;;;;;6096152;28;83290;-80
2021/01/04 02:48:28;;;;;;;53.13;28.92;;;22.40;35.70;;;;;;6101812;28;82740;-80
2021/01/04 02:51:29;;;;;;;58.38;31.58;;;22.40;35.80;;;;;;6101314;28;83177;-80
2021/01/04 02:54:29;;;;;;;52.72;30.38;;;22.40;35.90;;;;;;6105468;28;84341;-80
2021/01/04 02:57:30;;;;;;;57.97;31.15;;;22.40;36.00;;;;;;6094107;28;82781;-81
2021/01/04 03:00:30;;;;;;;54.55;29.83;;;22.40;36.00;;;;;;6103703;28;83372;-80
2021/01/04 03:03:31;;;;;;;53.63;31.20;;;22.40;36.10;;;;;;6101828;28;83366;-81
2021/01/04 03:06:31;;;;;;;52.85;29.67;;;22.40;36.10;;;;;;6094622;28;83267;-81
2021/01/04 03:09:32;;;;;;;56.42;31.65;;;22.40;36.30;;;;;;6101875;28;84088;-81
2021/01/04 03:12:32;;;;;;;57.53;31.42;;;22.30;36.10;;;;;;6105582;28;83393;-81
2021/01/04 03:15:33;;;;;;;58.55;32.20;;;22.30;36.20;;;;;;6092170;28;84364;-79
2021/01/04 03:18:33;;;;;;;58.47;31.85;;;22.30;36.30;;;;;;6105330;28;82966;-80
2021/01/04 03:21:34;;;;;;;54.15;30.65;;;22.30;36.40;;;;;;6104235;28;83299;-80
2021/01/04 03:24:34;;;;;;;55.15;31.67;;;22.30;36.50;;;;;;6103609;28;83362;-80
2021/01/04 03:27:35;;;;;;;58.97;32.63;;;22.30;36.40;;;;;;6102304;28;82893;-79
2021/01/04 03:30:35;;;;;;;59.13;33.97;;;22.30;36.40;;;;;;6104325;28;85029;-79
2021/01/04 03:33:36;;;;;;;58.88;32.55;;;22.30;36.10;;;;;;6103555;28;82888;-79
2021/01/04 03:36:36;;;;;;;59.88;33.58;;;22.30;36.30;;;;;;6102237;28;82959;-78
2021/01/04 03:39:37;;;;;;;57.05;32.67;;;22.30;36.20;;;;;;6101684;28;83617;-78
2021/01/04 03:42:37;;;;;;;63.40;34.65;;;22.30;36.20;;;;;;6091124;28;83162;-80
2021/01/04 03:45:38;;;;;;;63.70;34.08;;;22.20;36.80;;;;;;6101793;28;83092;-79
2021/01/04 03:48:39;;;;;;;55.47;32.13;;;22.30;36.00;;;;;;6101607;28;82920;-79
2021/01/04 03:51:39;;;;;;;61.00;34.53;;;22.30;36.00;;;;;;6100447;28;84036;-79
2021/01/04 03:54:40;;;;;;;60.33;33.40;;;22.20;35.70;;;;;;6103791;28;83155;-79
2021/01/04 03:57:40;;;;;;;64.88;35.42;;;22.30;35.70;;;;;;6096152;28;83549;-80
2021/01/04 04:00:41;;;;;;;60.30;33.72;;;22.30;35.60;;;;;;6101054;28;84102;-80
2021/01/04 04:03:41;;;;;;;61.88;34.65;;;22.20;35.60;;;;;;6100959;28;83197;-81
2021/01/04 04:06:42;;;;;;;62.00;35.30;;;22.20;35.40;;;;;;6099527;28;84074;-81
2021/01/04 04:09:42;;;;;;;60.05;35.17;;;22.20;35.30;;;;;;6100871;28;83634;-81
2021/01/04 04:12:43;;;;;;;56.83;33.67;;;22.20;36.10;;;;;;6095813;28;83470;-80
2021/01/04 04:15:43;;;;;;;67.50;38.47;;;22.20;36.60;;;;;;6068421;28;84638;-79
2021/01/04 04:18:44;;;;;;;70.60;38.95;;;22.20;35.90;;;;;;6095391;28;83674;-80
2021/01/04 04:21:44;;;;;;;70.93;39.80;;;22.30;34.90;;;;;;6101510;28;84212;-80
2021/01/04 04:24:45;;;;;;;76.30;40.55;;;22.30;34.30;;;;;;6102750;28;83978;-79
2021/01/04 04:27:45;;;;;;;68.70;39.00;;;22.40;34.30;;;;;;6100448;28;83337;-80
2021/01/04 04:30:46;;;;;;;64.25;36.38;;;22.40;35.70;;;;;;6094055;28;83561;-82
2021/01/04 04:33:46;;;;;;;73.68;39.33;;;22.40;35.30;;;;;;6090149;28;83489;-80
2021/01/04 04:36:47;;;;;;;67.53;39.10;;;22.40;35.70;;;;;;6118296;28;84031;-80
2021/01/04 04:39:48;;;;;;;75.35;39.90;;;22.40;35.20;;;;;;6090593;28;86247;-80
2021/01/04 04:42:48;;;;;;;67.50;38.53;;;22.50;34.50;;;;;;6102597;28;83604;-82
2021/01/04 04:45:49;;;;;;;68.25;39.10;;;22.40;34.60;;;;;;6098719;28;83611;-80
2021/01/04 04:48:49;;;;;;;67.97;38.38;;;22.50;34.30;;;;;;6094833;28;84020;-80
2021/01/04 04:51:50;;;;;;;71.97;39.58;;;22.50;34.30;;;;;;6080087;28;84303;-80
2021/01/04 04:54:50;;;;;;;66.15;38.58;;;22.50;34.20;;;;;;6102551;28;83403;-79
2021/01/04 04:57:51;;;;;;;69.97;39.42;;;22.50;34.40;;;;;;6097156;28;82839;-79
2021/01/04 05:00:51;;;;;;;67.22;38.92;;;22.60;34.20;;;;;;6095121;28;84068;-81
2021/01/04 05:03:52;;;;;;;63.78;38.15;;;22.60;34.80;;;;;;6102262;28;83368;-79
2021/01/04 05:06:52;;;;;;;68.85;38.40;;;22.60;34.20;;;;;;6100878;28;83408;-78
2021/01/04 05:09:53;;;;;;;67.75;38.08;;;22.60;34.10;;;;;;6109098;28;83359;-78
2021/01/04 05:12:53;;;;;;;69.20;40.58;;;22.60;34.30;;;;;;6093524;28;82917;-78
2021/01/04 05:15:54;;;;;;;66.30;39.67;;;22.60;34.10;;;;;;6101565;28;82751;-76
2021/01/04 05:18:54;;;;;;;71.10;39.15;;;22.70;34.10;;;;;;6096962;28;83638;-79
2021/01/04 05:21:55;;;;;;;73.43;39.90;;;22.70;34.20;;;;;;6105317;28;84027;-77
2021/01/04 05:24:56;;;;;;;69.15;39.88;;;22.70;34.30;;;;;;6098721;28;83192;-78
2021/01/04 05:27:56;;;;;;;70.53;40.20;;;22.70;34.10;;;;;;6094099;28;83235;-78
2021/01/04 05:30:57;;;;;;;73.10;39.60;;;22.70;34.30;;;;;;6101550;28;83219;-78
2021/01/04 05:33:57;;;;;;;69.05;38.55;;;22.70;34.00;;;;;;6100087;28;83771;-79
2021/01/04 05:36:58;;;;;;;75.80;41.10;;;22.70;34.20;;;;;;6094497;28;83325;-75
2021/01/04 05:39:58;;;;;;;69.22;39.72;;;22.70;34.10;;;;;;6094521;28;83178;-80
2021/01/04 05:42:59;;;;;;;69.50;39.65;;;22.70;34.00;;;;;;6104448;28;83984;-79
2021/01/04 05:45:59;;;;;;;70.40;39.10;;;22.70;34.10;;;;;;6089213;28;83770;-76
2021/01/04 05:49:00;;;;;;;72.35;40.85;;;22.70;33.90;;;;;;6095393;28;83412;-78
2021/01/04 05:52:00;;;;;;;75.00;41.40;;;22.70;33.90;;;;;;6089484;28;83307;-79
2021/01/04 05:55:01;;;;;;;74.63;41.70;;;22.80;33.90;;;;;;6097445;28;85491;-79
2021/01/04 05:58:01;;;;;;;69.75;41.10;;;22.80;33.90;;;;;;6102703;28;83516;-80
2021/01/04 06:01:02;;;;;;;70.10;39.97;;;22.80;33.90;;;;;;6090489;28;83669;-77
2021/01/04 06:04:02;;;;;;;67.97;37.97;;;22.80;33.80;;;;;;6102470;28;84113;-79
2021/01/04 06:07:03;;;;;;;66.80;36.83;;;22.80;34.90;;;;;;6092814;28;83351;-79
2021/01/04 06:10:03;;;;;;;58.78;31.38;;;22.90;34.60;;;;;;6102697;28;83474;-68
2021/01/04 06:13:04;;;;;;;58.63;30.73;;;22.80;35.80;;;;;;6102848;28;83175;-74
2021/01/04 06:16:04;;;;;;;49.38;25.55;;;22.80;35.50;;;;;;6102801;28;83420;-72
2021/01/04 06:19:05;;;;;;;42.90;23.80;;;22.90;36.50;;;;;;6102047;28;83222;-73
2021/01/04 06:22:05;;;;;;;38.30;23.15;;;22.90;37.60;;;;;;6102505;28;83748;-76
2021/01/04 06:25:06;;;;;;;36.22;22.05;;;22.90;37.90;;;;;;6100757;28;83581;-68
2021/01/04 06:28:07;;;;;;;36.67;21.10;;;22.90;38.50;;;;;;6099010;28;82982;-70
2021/01/04 06:31:07;;;;;;;38.03;20.50;;;22.90;39.10;;;;;;6092432;28;83473;-72
2021/01/04 06:34:08;;;;;;;33.88;18.85;;;22.90;39.00;;;;;;6104066;28;83433;-72
2021/01/04 06:37:08;;;;;;;39.42;20.40;;;22.90;39.30;;;;;;6105136;28;83349;-68
2021/01/04 06:40:09;;;;;;;33.47;19.08;;;22.90;39.40;;;;;;6103512;28;83373;-73
2021/01/04 06:43:10;;;;;;;33.95;18.50;;;22.90;39.80;;;;;;6101854;28;82882;-71
2021/01/04 06:46:10;;;;;;;29.92;18.65;;;22.90;39.80;;;;;;6120737;28;83469;-72
2021/01/04 06:49:11;;;;;;;37.97;21.50;;;22.90;39.90;;;;;;6102654;28;83237;-76
2021/01/04 06:52:11;;;;;;;36.33;19.70;;;23.00;40.00;;;;;;6104007;28;83941;-70
2021/01/04 06:55:12;;;;;;;35.30;19.95;;;23.00;40.40;;;;;;6098102;28;83401;-68
2021/01/04 06:58:12;;;;;;;38.17;20.02;;;23.00;40.60;;;;;;6099972;28;87196;-69
2021/01/04 07:01:13;;;;;;;35.63;20.80;;;23.00;40.80;;;;;;6103119;28;83510;-71
2021/01/04 07:04:14;;;;;;;32.70;19.45;;;23.00;40.90;;;;;;6103627;28;83436;-70
2021/01/04 07:07:14;;;;;;;37.75;19.80;;;23.10;41.30;;;;;;6093319;28;83639;-66
2021/01/04 07:10:15;;;;;;;30.83;19.20;;;23.10;41.40;;;;;;6101527;28;83993;-68
2021/01/04 07:13:15;;;;;;;34.25;19.85;;;23.10;41.40;;;;;;6095247;28;84347;-67
2021/01/04 07:16:16;;;;;;;37.00;22.52;;;23.10;41.50;;;;;;6100070;28;83629;-67
2021/01/04 07:19:16;;;;;;;45.63;26.15;;;23.20;40.80;;;;;;6103205;28;83347;-67
2021/01/04 07:22:17;;;;;;;50.13;27.20;;;23.30;40.30;;;;;;6098908;28;83026;-67
2021/01/04 07:25:17;;;;;;;48.95;28.98;;;23.30;40.00;;;;;;6098237;28;83578;-68
2021/01/04 07:28:18;;;;;;;53.70;29.90;;;23.30;40.20;;;;;;6099205;28;83927;-69
2021/01/04 07:31:18;;;;;;;56.33;30.88;;;23.30;39.30;;;;;;6101525;28;83065;-67
2021/01/04 07:34:19;;;;;;;59.75;30.70;;;23.30;38.90;;;;;;6101394;28;83380;-67
2021/01/04 07:37:19;;;;;;;49.90;30.55;;;23.30;38.70;;;;;;6103330;28;83402;-66
2021/01/04 07:40:20;;;;;;;55.83;31.25;;;23.20;38.50;;;;;;6099993;28;83580;-65
2021/01/04 07:43:20;;;;;;;52.53;28.33;;;23.20;37.90;;;;;;6099874;28;83961;-68
2021/01/04 07:46:21;;;;;;;57.33;30.33;;;23.30;38.00;;;;;;6093106;28;84361;-66
2021/01/04 07:49:21;;;;;;;54.95;30.30;;;23.30;38.00;;;;;;6099451;28;83904;-67
2021/01/04 07:52:22;;;;;;;56.92;30.65;;;23.30;37.80;;;;;;6099585;28;83248;-66
2021/01/04 07:55:22;;;;;;;53.25;29.60;;;23.30;37.20;;;;;;6099168;28;84101;-66
2021/01/04 07:58:23;;;;;;;370.48;139.70;;;23.30;38.10;;;;;;6092944;28;84624;-66
2021/01/04 08:01:23;;;;;;;432.77;162.38;;;23.30;37.00;;;;;;6090081;28;86020;-67
2021/01/04 08:04:24;;;;;;;382.60;141.05;;;23.30;36.90;;;;;;6088645;28;86699;-67
2021/01/04 08:07:25;;;;;;;194.13;80.82;;;23.30;36.90;;;;;;6091954;28;85685;-68
2021/01/04 08:10:26;;;;;;;263.45;102.88;;;23.20;37.30;;;;;;6093098;28;85356;-70
2021/01/04 08:13:26;;;;;;;288.52;112.72;;;23.20;36.90;;;;;;6085225;28;85983;-69
2021/01/04 08:16:27;;;;;;;262.77;103.57;;;23.20;36.60;;;;;;6106480;28;86579;-68
2021/01/04 08:19:27;;;;;;;230.00;93.40;;;23.20;36.60;;;;;;6096772;28;86375;-66
2021/01/04 08:22:28;;;;;;;207.55;91.68;;;23.20;36.70;;;;;;6091106;28;85367;-66
2021/01/04 08:25:28;;;;;;;205.95;83.80;;;23.30;36.40;;;;;;6095243;28;84533;-65
2021/01/04 08:28:29;;;;;;;193.98;82.30;;;23.30;36.60;;;;;;6092759;28;83619;-66
2021/01/04 08:31:29;;;;;;;176.98;74.78;;;23.20;36.20;;;;;;6093918;28;83995;-64
2021/01/04 08:34:30;;;;;;;167.73;69.43;;;23.30;36.80;;;;;;6098931;28;83678;-66
2021/01/04 08:37:30;;;;;;;157.57;70.25;;;23.30;36.30;;;;;;6097143;28;84427;-67
2021/01/04 08:40:31;;;;;;;152.38;63.97;;;23.10;36.60;;;;;;6092396;28;83133;-69
2021/01/04 08:43:31;;;;;;;140.23;63.58;;;23.30;36.80;;;;;;6094150;28;83205;-68
2021/01/04 08:46:32;;;;;;;140.40;61.13;;;23.30;37.20;;;;;;6091654;28;83933;-67
2021/01/04 08:49:32;;;;;;;131.07;58.17;;;23.20;37.30;;;;;;6084283;28;83411;-66
2021/01/04 08:52:33;;;;;;;127.60;56.03;;;23.20;37.40;;;;;;6091754;28;83974;-68
2021/01/04 08:55:33;;;;;;;119.15;53.83;;;23.20;37.30;;;;;;6092349;28;83010;-68
2021/01/04 08:58:34;;;;;;;114.53;54.40;;;23.20;37.00;;;;;;6096330;28;84040;-68
2021/01/04 09:01:34;;;;;;;107.40;50.40;;;23.20;36.90;;;;;;6094187;28;83491;-73
2021/01/04 09:04:35;;;;;;;102.20;51.53;;;23.20;36.90;;;;;;6093574;28;84141;-71
2021/01/04 09:07:36;;;;;;;98.85;49.55;;;23.20;36.50;;;;;;6094266;28;84765;-67
2021/01/04 09:10:36;;;;;;;99.50;49.22;;;23.30;36.90;;;;;;6096291;28;83423;-72
2021/01/04 09:13:37;;;;;;;108.18;50.58;;;23.30;36.40;;;;;;6090327;28;83366;-70
2021/01/04 09:16:37;;;;;;;94.38;50.20;;;23.20;36.40;;;;;;6091334;28;86156;-69
2021/01/04 09:19:38;;;;;;;97.38;47.50;;;23.20;36.40;;;;;;6092870;28;84039;-70
2021/01/04 09:22:39;;;;;;;87.07;43.92;;;23.20;36.30;;;;;;6093584;28;83176;-69
2021/01/04 09:25:39;;;;;;;91.00;44.92;;;23.20;36.30;;;;;;6095880;28;84138;-70
2021/01/04 09:28:40;;;;;;;84.60;43.28;;;23.20;36.20;;;;;;6083506;28;82896;-69
2021/01/04 09:31:40;;;;;;;78.85;41.30;;;23.20;36.00;;;;;;6096927;28;84909;-71
2021/01/04 09:34:41;;;;;;;82.30;41.40;;;23.30;36.00;;;;;;6095123;28;83562;-70
2021/01/04 09:37:41;;;;;;;75.47;38.95;;;23.30;36.10;;;;;;6095363;28;83395;-70
2021/01/04 09:40:41;;;;;;;74.13;38.83;;;23.30;36.40;;;;;;6093506;28;83144;-80
2021/01/04 09:43:42;;;;;;;70.60;37.20;;;23.30;36.90;;;;;;6093671;28;83893;-75
2021/01/04 09:46:43;;;;;;;77.32;36.95;;;23.30;36.10;;;;;;6096234;28;85226;-65
2021/01/04 09:49:43;;;;;;;72.72;36.55;;;23.30;36.00;;;;;;6098747;28;83966;-64
2021/01/04 09:52:44;;;;;;;67.53;36.53;;;23.30;36.30;;;;;;6093673;28;83266;-65
2021/01/04 09:55:44;;;;;;;64.97;35.47;;;23.30;36.30;;;;;;6094270;28;83811;-65
2021/01/04 09:58:45;;;;;;;67.60;33.92;;;23.30;36.20;;;;;;6097691;28;83648;-66
2021/01/04 10:01:45;;;;;;;68.90;34.25;;;23.20;36.60;;;;;;6091824;28;83155;-65
2021/01/04 10:04:46;;;;;;;65.22;34.88;;;23.20;35.80;;;;;;6096922;28;84713;-68
2021/01/04 10:07:46;;;;;;;61.83;33.88;;;23.20;35.80;;;;;;6099484;28;83458;-67
2021/01/04 10:10:48;;;;;;;65.38;32.53;;;23.20;35.70;;;;;;6100628;28;83372;-66
2021/01/04 10:13:50;;;;;;;61.92;32.33;;;23.20;35.90;;;;;;6089677;28;83245;-66
2021/01/04 10:16:50;;;;;;;60.92;31.83;;;23.20;36.20;;;;;;6088137;28;83341;-65
2021/01/04 10:19:51;;;;;;;63.15;32.35;;;23.20;36.60;;;;;;6088928;28;87689;-65
2021/01/04 10:22:52;;;;;;;59.53;31.20;;;23.30;37.40;;;;;;6097793;28;83366;-65
2021/01/04 10:25:52;;;;;;;62.35;31.98;;;23.30;37.90;;;;;;6091639;28;83445;-66
2021/01/04 10:28:52;;;;;;;55.42;30.38;;;23.40;39.10;;;;;;6105091;28;86502;-67
2021/01/04 10:31:53;;;;;;;53.03;28.45;;;23.40;38.10;;;;;;6108038;28;85382;-66
2021/01/04 10:34:53;;;;;;;56.10;30.83;;;23.50;37.80;;;;;;6102198;28;83004;-67
2021/01/04 10:37:54;;;;;;;60.15;28.95;;;23.50;37.60;;;;;;6099523;28;84550;-67
2021/01/04 10:40:54;;;;;;;54.25;29.25;;;23.60;37.50;;;;;;6099776;28;83380;-67
2021/01/04 10:43:55;;;;;;;52.50;28.50;;;23.60;37.40;;;;;;6097672;28;84074;-67
2021/01/04 10:46:55;;;;;;;46.60;26.67;;;23.60;37.40;;;;;;6094211;28;83132;-70
2021/01/04 10:49:56;;;;;;;52.35;27.73;;;23.60;37.40;;;;;;6096241;28;83750;-67
2021/01/04 10:52:56;;;;;;;51.85;28.85;;;23.60;37.30;;;;;;6094642;28;83526;-67
2021/01/04 10:55:57;;;;;;;49.58;26.95;;;23.60;37.30;;;;;;6094422;28;83153;-67
2021/01/04 10:58:57;;;;;;;44.92;26.05;;;23.60;37.10;;;;;;6095795;28;87076;-67
2021/01/04 11:01:58;;;;;;;45.00;25.25;;;23.60;36.90;;;;;;6108248;28;84727;-67
2021/01/04 11:04:58;;;;;;;45.15;25.17;;;23.60;36.70;;;;;;6097936;28;84332;-66
2021/01/04 11:07:59;;;;;;;42.92;25.35;;;23.60;36.40;;;;;;6093888;28;83489;-66
2021/01/04 11:10:59;;;;;;;47.50;26.50;;;23.60;36.20;;;;;;6099215;28;83791;-67
2021/01/04 11:14:00;;;;;;;45.47;24.73;;;23.60;36.70;;;;;;6089901;28;87760;-66
2021/01/04 11:17:00;;;;;;;46.25;25.33;;;23.60;37.00;;;;;;6088301;28;83441;-67
2021/01/04 11:20:20;;;;;;;48.72;26.30;;;23.60;37.00;;;;;;6104913;28;83545;-65
2021/01/04 11:23:20;;;;;;;46.45;23.48;;;23.70;37.10;;;;;;6099906;28;83336;-67
2021/01/04 11:26:21;;;;;;;42.47;24.05;;;23.60;37.00;;;;;;6096831;28;82835;-66
2021/01/04 11:29:21;;;;;;;40.58;23.73;;;23.60;36.60;;;;;;6098773;28;83637;-67
2021/01/04 11:32:22;;;;;;;43.67;24.67;;;23.60;36.40;;;;;;6093565;28;82971;-66
2021/01/04 11:35:22;;;;;;;45.08;24.25;;;23.60;36.60;;;;;;6090940;28;83347;-67
2021/01/04 11:38:24;;;;;;;53.40;26.38;;;23.60;37.70;;;;;;6097022;28;85087;-67
2021/01/04 11:41:25;;;;;;;45.25;27.92;;;23.60;38.10;;;;;;6101370;28;83703;-67
2021/01/04 11:44:25;;;;;;;48.63;24.55;;;23.60;38.90;;;;;;6096443;28;84348;-67
2021/01/04 11:47:26;;;;;;;45.70;25.05;;;23.60;39.70;;;;;;6092850;28;83820;-66
2021/01/04 11:50:26;;;;;;;50.35;27.13;;;23.60;40.50;;;;;;6096265;28;83448;-66
2021/01/04 11:53:27;;;;;;;51.63;27.75;;;23.60;41.30;;;;;;6109077;28;83222;-67
2021/01/04 11:56:28;;;;;;;57.85;29.08;;;23.60;41.40;;;;;;6097529;28;85394;-66
2021/01/04 11:59:28;;;;;;;50.22;27.50;;;23.60;41.60;;;;;;6099436;28;83419;-66
2021/01/04 12:02:29;;;;;;;48.90;27.70;;;23.60;40.80;;;;;;6108623;28;82869;-68
2021/01/04 12:05:29;;;;;;;52.78;27.25;;;23.60;40.20;;;;;;6102637;28;84150;-70
2021/01/04 12:08:30;;;;;;;50.85;26.88;;;23.60;42.00;;;;;;6093009;28;83163;-72
2021/01/04 12:11:30;;;;;;;53.92;27.02;;;23.60;41.30;;;;;;6091473;28;83638;-67
2021/01/04 12:14:31;;;;;;;53.95;27.08;;;23.50;40.90;;;;;;6084188;28;84009;-69
2021/01/04 12:17:31;;;;;;;54.33;27.73;;;23.50;41.30;;;;;;6097853;28;83579;-68
2021/01/04 12:20:32;;;;;;;54.47;29.42;;;23.50;41.10;;;;;;6092423;28;82938;-67
2021/01/04 12:23:32;;;;;;;51.40;27.98;;;23.50;41.50;;;;;;6092468;28;84367;-69
2021/01/04 12:26:33;;;;;;;52.05;27.50;;;23.40;40.40;;;;;;6092458;28;84350;-68
2021/01/04 12:29:33;;;;;;;58.22;29.52;;;23.40;40.00;;;;;;6092574;28;84402;-67
2021/01/04 12:32:34;;;;;;;60.13;29.08;;;23.40;40.10;;;;;;6094477;28;83078;-69
2021/01/04 12:35:35;;;;;;;50.05;25.98;;;23.30;40.00;;;;;;6097761;28;83805;-69
2021/01/04 12:38:35;;;;;;;64.22;28.67;;;23.30;39.60;;;;;;6089225;28;84080;-68
2021/01/04 12:41:36;;;;;;;47.95;27.63;;;23.40;39.20;;;;;;6091298;28;83175;-68
2021/01/04 12:44:37;;;;;;;57.92;29.95;;;23.40;38.70;;;;;;6096854;28;83431;-68
2021/01/04 12:47:37;;;;;;;60.58;29.30;;;23.30;38.50;;;;;;6093320;28;84267;-68
2021/01/04 12:50:38;;;;;;;48.22;27.20;;;23.20;38.30;;;;;;6092121;28;85387;-69
2021/01/04 12:53:38;;;;;;;58.63;28.05;;;23.20;38.20;;;;;;6097114;28;83314;-70
2021/01/04 12:56:39;;;;;;;52.10;28.10;;;23.20;38.20;;;;;;6099047;28;83286;-69
2021/01/04 12:59:41;;;;;;;52.50;28.15;;;23.20;37.90;;;;;;6106596;28;86045;-70
2021/01/04 13:02:41;;;;;;;49.67;26.42;;;23.20;37.80;;;;;;6097573;28;83955;-69
2021/01/04 13:05:42;;;;;;;41.75;25.05;;;23.20;37.90;;;;;;6092398;28;84348;-69
2021/01/04 13:08:42;;;;;;;44.63;26.33;;;23.20;37.70;;;;;;6099534;28;83947;-69
2021/01/04 13:11:43;;;;;;;51.15;28.80;;;23.10;37.60;;;;;;6109785;28;83394;-69
2021/01/04 13:14:46;;;;;;;48.25;27.17;;;23.10;37.50;;;;;;6101511;28;83656;-69
2021/01/04 13:17:47;;;;;;;48.13;26.75;;;23.10;37.50;;;;;;6095250;28;82983;-69
2021/01/04 13:20:47;;;;;;;48.58;27.92;;;23.10;37.30;;;;;;6099855;28;83521;-69
2021/01/04 13:23:48;;;;;;;54.30;27.88;;;23.10;37.20;;;;;;6096271;28;87351;-69
2021/01/04 13:26:48;;;;;;;49.20;25.58;;;23.10;37.50;;;;;;6099784;28;87702;-69
2021/01/04 13:29:51;;;;;;;51.80;26.33;;;23.10;37.30;;;;;;6105219;28;90106;-68
2021/01/04 13:32:51;;;;;;;45.58;26.02;;;23.10;37.30;;;;;;6108013;28;83466;-68
2021/01/04 13:35:52;;;;;;;48.67;26.92;;;23.10;37.80;;;;;;6085706;28;83134;-68
2021/01/04 13:38:52;;;;;;;47.03;26.17;;;23.10;37.00;;;;;;6097449;28;84310;-68
2021/01/04 13:41:53;;;;;;;46.90;26.48;;;23.10;36.90;;;;;;6096761;28;84351;-68
2021/01/04 13:44:54;;;;;;;42.05;25.40;;;23.10;36.80;;;;;;6088599;28;85194;-69
2021/01/04 13:47:54;;;;;;;50.10;26.38;;;23.10;36.80;;;;;;6086737;28;82974;-71
2021/01/04 13:50:55;;;;;;;44.90;26.33;;;23.10;36.60;;;;;;6102728;28;83231;-71
2021/01/04 13:53:55;;;;;;;53.65;28.13;;;23.10;36.70;;;;;;6096456;28;83640;-70
2021/01/04 13:56:56;;;;;;;46.70;27.40;;;23.00;36.60;;;;;;6114954;28;83929;-71
2021/01/04 13:59:56;;;;;;;51.78;28.58;;;23.00;36.50;;;;;;6097826;28;83664;-70
2021/01/04 14:02:57;;;;;;;46.38;26.75;;;23.00;36.40;;;;;;6091134;28;84206;-71
2021/01/04 14:05:57;;;;;;;48.83;28.85;;;23.00;36.40;;;;;;6087661;28;83413;-71
2021/01/04 14:08:59;;;;;;;49.97;29.25;;;23.00;36.40;;;;;;6100162;28;83085;-70
2021/01/04 14:11:59;;;;;;;45.33;27.50;;;23.00;36.30;;;;;;6100820;28;83175;-71
2021/01/04 14:15:00;;;;;;;49.50;26.75;;;23.00;36.20;;;;;;6089806;28;82881;-71
2021/01/04 14:18:00;;;;;;;50.17;27.70;;;22.90;36.10;;;;;;6094005;28;83210;-76
2021/01/04 14:21:01;;;;;;;49.50;27.17;;;22.90;36.10;;;;;;6096518;28;85240;-71
2021/01/04 14:24:01;;;;;;;49.95;27.48;;;22.90;36.80;;;;;;6097463;28;83285;-71
2021/01/04 14:27:02;;;;;;;44.38;25.75;;;22.90;36.30;;;;;;6098039;28;83405;-70
2021/01/04 14:30:03;;;;;;;44.95;25.42;;;23.00;36.70;;;;;;6094125;28;84252;-70
2021/01/04 14:33:03;;;;;;;43.60;24.23;;;23.10;36.90;;;;;;6095019;28;83590;-68
2021/01/04 14:36:04;;;;;;;43.95;24.13;;;23.10;37.10;;;;;;6094613;28;84905;-68
2021/01/04 14:39:04;;;;;;;41.65;23.42;;;23.10;36.80;;;;;;6101611;28;84069;-69
2021/01/04 14:42:06;;;;;;;38.63;23.95;;;23.20;37.00;;;;;;6094345;28;84011;-69
2021/01/04 14:45:06;;;;;;;38.75;22.58;;;23.20;36.80;;;;;;6099033;28;83618;-69
2021/01/04 14:48:07;;;;;;;43.13;22.45;;;23.20;36.90;;;;;;6083683;28;83042;-69
2021/01/04 14:51:08;;;;;;;37.17;21.88;;;23.30;36.90;;;;;;6100527;28;83537;-69
2021/01/04 14:54:08;;;;;;;34.72;21.55;;;23.30;36.90;;;;;;6103675;28;83229;-69
2021/01/04 14:57:09;;;;;;;38.70;19.60;;;23.30;36.90;;;;;;6088614;28;83381;-69
2021/01/04 15:00:10;;;;;;;31.85;20.13;;;23.30;37.00;;;;;;6094372;28;83324;-70
2021/01/04 15:03:10;;;;;;;34.33;19.83;;;23.30;36.80;;;;;;6097163;28;83283;-68
2021/01/04 15:06:11;;;;;;;33.88;20.63;;;23.30;36.90;;;;;;6100182;28;83216;-69
2021/01/04 15:09:11;;;;;;;34.00;20.35;;;23.30;36.90;;;;;;6094244;28;83615;-71
2021/01/04 15:12:12;;;;;;;35.63;21.02;;;23.30;36.80;;;;;;6094729;28;83277;-73
2021/01/04 15:15:12;;;;;;;29.45;19.00;;;23.40;37.00;;;;;;6098766;28;83410;-71